Time;durP1;ratioP1;P1;durP2;ratioP2;P2;SDS_P1;SDS_P2;PMS_P1;PMS_P2;Temp;Humidity;BMP_temperature;BMP_pressure;BME280_temperature;BME280_humidity;BME280_pressure;Samples;Min_cycle;Max_cycle;Signal;HPM_P1;HPM_P2
2022/05/09 00:01:00;;;;;;;14.13;6.68;;;;;;;17.27;77.18;101220.44;2079447;28;20049;-72
2022/05/09 00:02:23;;;;;;;13.77;6.95;;;;;;;17.23;77.34;101218.69;2093530;28;20114;-71
2022/05/09 00:03:45;;;;;;;13.82;6.70;;;;;;;17.23;77.08;101224.03;2080768;28;20053;-71
2022/05/09 00:05:10;;;;;;;10.75;6.28;;;;;;;17.23;77.04;101222.25;2086457;28;20071;-71
2022/05/09 00:06:33;;;;;;;13.43;6.47;;;;;;;17.21;76.88;101228.47;2088087;28;20052;-71
2022/05/09 00:07:56;;;;;;;16.10;6.70;;;;;;;17.21;76.72;101233.81;2087249;28;20049;-71
2022/05/09 00:09:18;;;;;;;14.05;7.03;;;;;;;17.20;76.40;101229.41;2079283;28;20049;-71
2022/05/09 00:10:41;;;;;;;15.45;6.25;;;;;;;17.18;76.52;101229.41;2083937;28;20044;-71
2022/05/09 00:12:03;;;;;;;16.75;6.95;;;;;;;17.18;76.54;101234.72;2081857;28;20079;-71
2022/05/09 00:13:25;;;;;;;16.27;6.68;;;;;;;17.17;76.47;101229.41;2079118;28;20056;-72
2022/05/09 00:14:47;;;;;;;16.67;6.72;;;;;;;17.16;76.52;101224.94;2087592;28;20043;-71
2022/05/09 00:16:12;;;;;;;13.73;6.63;;;;;;;17.16;76.48;101228.50;2086343;28;20076;-71
2022/05/09 00:17:34;;;;;;;14.38;7.13;;;;;;;17.15;76.50;101221.38;2081824;28;20056;-71
2022/05/09 00:18:56;;;;;;;16.77;7.55;;;;;;;17.14;76.38;101222.28;2079582;28;20102;-71
2022/05/09 00:20:19;;;;;;;15.15;6.35;;;;;;;17.11;76.27;101224.97;2080633;28;20479;-71
2022/05/09 00:21:42;;;;;;;13.40;6.75;;;;;;;17.08;76.23;101222.31;2085685;28;20049;-71
2022/05/09 00:23:04;;;;;;;13.38;6.40;;;;;;;17.04;76.07;101218.78;2073378;28;20046;-71
2022/05/09 00:24:27;;;;;;;15.43;7.15;;;;;;;17.02;75.99;101231.22;2084781;28;20049;-71
2022/05/09 00:25:50;;;;;;;14.50;6.55;;;;;;;16.98;75.95;101225.91;2089877;28;20384;-71
2022/05/09 00:27:12;;;;;;;14.45;6.55;;;;;;;16.97;75.91;101224.13;2086575;28;20041;-71
2022/05/09 00:28:35;;;;;;;13.45;6.30;;;;;;;16.95;76.00;101220.56;2087259;28;20094;-71
2022/05/09 00:30:01;;;;;;;17.52;7.00;;;;;;;16.96;76.04;101222.34;2085443;28;20076;-71
2022/05/09 00:31:25;;;;;;;17.17;6.75;;;;;;;16.96;76.09;101228.56;2076262;28;20088;-71
2022/05/09 00:32:47;;;;;;;14.13;6.50;;;;;;;16.93;76.22;101228.59;2093014;28;20044;-71
2022/05/09 00:34:10;;;;;;;13.43;5.93;;;;;;;16.90;76.36;101222.38;2090172;28;20040;-71
2022/05/09 00:35:34;;;;;;;13.98;6.60;;;;;;;16.88;76.47;101226.81;2085654;28;20052;-71
2022/05/09 00:36:55;;;;;;;14.68;6.40;;;;;;;16.86;76.62;101226.84;2071117;28;20084;-71
2022/05/09 00:38:18;;;;;;;13.15;6.47;;;;;;;16.86;76.68;101226.84;2079692;28;20119;-71
2022/05/09 00:39:41;;;;;;;12.52;6.72;;;;;;;16.84;76.74;101222.38;2085516;28;20090;-71
2022/05/09 00:42:46;;;;;;;13.98;6.05;;;;;;;16.86;76.82;101232.19;2074618;28;20041;-71
2022/05/09 00:44:11;;;;;;;11.80;6.30;;;;;;;16.86;76.82;101232.19;2077540;28;20061;-71
2022/05/09 00:45:34;;;;;;;16.88;7.07;;;;;;;16.87;76.83;101235.72;2082868;28;20086;-71
2022/05/09 00:46:58;;;;;;;15.07;6.75;;;;;;;16.91;76.72;101230.38;2087629;28;20156;-71
2022/05/09 00:48:19;;;;;;;16.63;7.20;;;;;;;16.92;76.71;101228.59;2087283;28;20102;-70
2022/05/09 00:49:47;;;;;;;14.18;6.18;;;;;;;16.95;76.66;101225.91;2088962;28;20442;-71
2022/05/09 00:51:10;;;;;;;15.48;6.47;;;;;;;16.93;76.56;101222.38;2083380;28;20137;-71
2022/05/09 00:52:39;;;;;;;14.80;6.70;;;;;;;16.92;76.28;101225.94;2083087;28;20045;-70
2022/05/09 00:54:02;;;;;;;13.48;6.20;;;;;;;16.87;76.27;101228.59;2077646;28;20438;-71
2022/05/09 00:55:29;;;;;;;14.77;6.60;;;;;;;16.89;76.36;101225.94;2077261;28;20145;-71
2022/05/09 00:56:58;;;;;;;12.95;7.00;;;;;;;16.84;76.38;101225.06;2084961;28;20049;-71
2022/05/09 00:58:25;;;;;;;14.05;6.15;;;;;;;16.81;76.57;101231.28;2095800;28;20102;-71
2022/05/09 00:59:48;;;;;;;14.77;6.82;;;;;;;16.78;76.69;101225.97;2081409;28;20562;-71
2022/05/09 01:01:13;;;;;;;14.35;6.68;;;;;;;16.79;76.76;101234.84;2081287;28;20389;-71
2022/05/09 01:02:39;;;;;;;14.20;6.63;;;;;;;16.77;76.70;101221.53;2078889;28;20037;-71
2022/05/09 01:04:08;;;;;;;19.17;7.43;;;;;;;16.76;76.83;101225.06;2075618;28;20049;-71
2022/05/09 01:05:30;;;;;;;14.55;6.38;;;;;;;16.73;76.76;101227.75;2082972;28;20548;-71
2022/05/09 01:06:55;;;;;;;19.08;7.45;;;;;;;16.72;76.80;101232.22;2076406;28;20080;-71
2022/05/09 01:08:18;;;;;;;16.10;7.28;;;;;;;16.72;76.72;101226.88;2083767;28;20095;-71
2022/05/09 01:09:40;;;;;;;14.65;6.47;;;;;;;16.71;76.61;101237.53;2086680;28;20481;-71
2022/05/09 01:11:04;;;;;;;11.55;6.70;;;;;;;16.70;76.73;101233.97;2086858;28;20094;-71
2022/05/09 01:12:31;;;;;;;18.85;7.57;;;;;;;16.71;76.70;101226.88;2072850;28;20050;-71
2022/05/09 01:13:58;;;;;;;15.35;6.60;;;;;;;16.71;76.65;101233.09;2077552;28;20053;-71
2022/05/09 01:15:22;;;;;;;21.10;7.50;;;;;;;16.67;76.51;101228.63;2079474;28;20049;-71
2022/05/09 01:16:46;;;;;;;17.80;7.75;;;;;;;16.67;76.34;101233.97;2078958;28;20542;-71
2022/05/09 01:18:13;;;;;;;13.52;7.05;;;;;;;16.67;76.26;101231.31;2079346;28;20046;-71
2022/05/09 01:19:38;;;;;;;15.75;7.03;;;;;;;16.65;76.25;101233.09;2085422;28;20052;-71
2022/05/09 01:21:00;;;;;;;14.65;6.85;;;;;;;16.63;76.04;101228.66;2081198;28;20049;-71
2022/05/09 01:22:27;;;;;;;15.68;7.22;;;;;;;16.60;75.95;101232.22;2089407;28;20066;-71
2022/05/09 01:23:48;;;;;;;13.85;7.15;;;;;;;16.57;76.15;101225.97;2085650;28;20426;-71
2022/05/09 01:25:14;;;;;;;15.98;7.25;;;;;;;16.57;76.13;101226.84;2085370;28;20470;-71
2022/05/09 01:26:36;;;;;;;18.05;7.10;;;;;;;16.54;76.15;101226.84;2087378;28;20403;-71
2022/05/09 01:27:59;;;;;;;12.55;6.57;;;;;;;16.52;76.23;101217.97;2076846;28;20485;-71
2022/05/09 01:29:41;;;;;;;17.73;8.23;;;;;;;16.53;76.28;101221.53;2074520;28;20068;-71
2022/05/09 01:31:07;;;;;;;12.88;6.85;;;;;;;16.50;76.36;101224.19;2094467;28;20048;-71
2022/05/09 01:32:35;;;;;;;14.40;7.45;;;;;;;16.50;76.51;101214.44;2081523;28;20101;-71
2022/05/09 01:34:01;;;;;;;16.67;7.43;;;;;;;16.47;76.25;101214.44;2090044;28;20052;-71
2022/05/09 01:35:28;;;;;;;14.90;7.00;;;;;;;16.46;76.37;101215.34;2081297;28;20539;-71
2022/05/09 01:37:07;;;;;;;17.05;7.93;;;;;;;16.45;76.29;101216.22;2079476;28;20088;-71
2022/05/09 01:38:37;;;;;;;14.50;7.35;;;;;;;16.41;76.38;101216.22;2081138;28;20377;-71
2022/05/09 01:39:59;;;;;;;14.93;7.32;;;;;;;16.38;76.51;101211.78;2079470;28;20057;-71
2022/05/09 01:41:22;;;;;;;13.30;6.93;;;;;;;16.37;76.43;101211.78;2069494;28;20101;-70
2022/05/09 01:42:45;;;;;;;14.32;6.75;;;;;;;16.34;76.27;101208.22;2084263;28;20037;-71
2022/05/09 01:44:07;;;;;;;13.95;6.60;;;;;;;16.32;76.27;101212.69;2072669;28;20100;-71
2022/05/09 01:45:30;;;;;;;15.18;7.00;;;;;;;16.22;76.19;101218.88;2078782;28;20065;-71
2022/05/09 01:50:11;;;;;;;11.55;6.45;;;;;;;15.98;76.52;101213.56;2088754;28;20092;-71
2022/05/09 01:51:33;;;;;;;15.15;7.50;;;;;;;15.94;76.56;101211.78;2083281;28;20154;-70
2022/05/09 01:52:56;;;;;;;13.88;6.75;;;;;;;15.87;76.55;101210.91;2090046;28;20526;-71
2022/05/09 01:54:20;;;;;;;18.13;7.18;;;;;;;15.84;76.53;101200.22;2084067;28;20053;-71
2022/05/09 01:55:43;;;;;;;15.68;7.20;;;;;;;15.79;76.56;101206.44;2086427;28;20048;-71
2022/05/09 01:57:06;;;;;;;17.90;6.78;;;;;;;15.74;76.68;101218.84;2081091;28;20049;-70
2022/05/09 01:58:28;;;;;;;12.70;6.82;;;;;;;15.66;76.77;101208.19;2078544;28;20102;-71
2022/05/09 01:59:50;;;;;;;13.85;7.03;;;;;;;15.67;76.88;101209.97;2078238;28;20045;-71
2022/05/09 02:01:12;;;;;;;14.68;6.90;;;;;;;15.69;76.70;101217.94;2069959;28;20056;-71
2022/05/09 02:02:35;;;;;;;13.20;6.85;;;;;;;15.72;76.49;101216.19;2078140;28;20136;-71
2022/05/09 02:03:58;;;;;;;13.27;6.30;;;;;;;15.74;76.23;101222.41;2076649;28;20049;-71
2022/05/09 02:05:20;;;;;;;13.90;7.10;;;;;;;15.77;76.16;101216.19;2078259;28;20108;-71
2022/05/09 02:06:42;;;;;;;15.00;6.55;;;;;;;15.80;75.99;101216.22;2075990;28;20128;-71
2022/05/09 02:08:05;;;;;;;15.85;7.57;;;;;;;15.82;75.91;101219.72;2076109;28;20045;-71
2022/05/09 02:09:29;;;;;;;19.30;7.32;;;;;;;15.84;75.79;101213.53;2082577;28;20106;-71
2022/05/09 02:10:52;;;;;;;12.25;7.03;;;;;;;15.78;75.72;101213.53;2087917;28;20045;-71
2022/05/09 02:12:15;;;;;;;15.50;7.03;;;;;;;15.75;75.66;101213.50;2084808;28;20053;-71
2022/05/09 02:13:36;;;;;;;13.68;6.78;;;;;;;15.71;75.46;101211.75;2086400;28;20041;-71
2022/05/09 02:14:59;;;;;;;14.40;7.20;;;;;;;15.70;75.21;101209.97;2080988;28;20041;-71
2022/05/09 02:16:22;;;;;;;11.23;6.72;;;;;;;15.68;75.08;101217.09;2084021;28;20425;-70
2022/05/09 02:17:45;;;;;;;13.02;7.18;;;;;;;15.68;74.95;101210.88;2080104;28;20592;-71
2022/05/09 02:19:06;;;;;;;14.13;7.63;;;;;;;15.67;74.86;101223.28;2083042;28;20060;-70
2022/05/09 02:20:29;;;;;;;13.95;7.90;;;;;;;15.68;74.92;101216.19;2078074;28;20060;-71
2022/05/09 02:21:51;;;;;;;13.82;6.35;;;;;;;15.69;74.91;101216.16;2074669;28;20079;-71
2022/05/09 02:23:17;;;;;;;11.45;6.60;;;;;;;15.70;74.83;101220.59;2080828;28;20064;-71
2022/05/09 02:24:41;;;;;;;16.17;6.82;;;;;;;15.67;74.83;101217.97;2086989;28;20045;-71
2022/05/09 02:26:03;;;;;;;11.38;6.65;;;;;;;15.65;74.92;101218.81;2079395;28;20068;-71
2022/05/09 02:27:25;;;;;;;14.00;7.25;;;;;;;15.61;75.09;101223.28;2090076;28;20094;-71
2022/05/09 02:28:47;;;;;;;14.82;7.72;;;;;;;15.58;75.24;101214.38;2080301;28;20045;-71
2022/05/09 02:30:11;;;;;;;14.52;6.72;;;;;;;15.59;75.22;101209.06;2077687;28;20134;-71
2022/05/09 02:31:34;;;;;;;15.35;7.05;;;;;;;15.56;75.30;101214.34;2070411;28;20080;-71
2022/05/09 02:32:56;;;;;;;11.85;6.50;;;;;;;15.48;75.47;101210.78;2081813;28;20040;-71
2022/05/09 02:34:19;;;;;;;11.25;6.65;;;;;;;15.37;75.64;101213.41;2086545;28;20114;-71
2022/05/09 02:35:42;;;;;;;14.00;6.72;;;;;;;15.28;75.89;101216.03;2078158;28;20041;-71
2022/05/09 02:37:06;;;;;;;12.90;7.57;;;;;;;15.18;76.18;101218.63;2083284;28;20158;-71
2022/05/09 02:38:29;;;;;;;11.40;6.35;;;;;;;15.12;76.42;101219.50;2084793;28;20063;-71
2022/05/09 02:39:54;;;;;;;14.02;7.35;;;;;;;15.18;76.51;101219.53;2083498;28;20052;-70
2022/05/09 02:41:16;;;;;;;14.25;7.75;;;;;;;15.23;76.44;101223.09;2085286;28;20091;-71
2022/05/09 02:42:39;;;;;;;15.40;7.18;;;;;;;15.27;76.29;101222.25;2085238;28;20498;-71
2022/05/09 02:44:01;;;;;;;12.63;6.72;;;;;;;15.31;76.25;101226.69;2086129;28;20128;-71
2022/05/09 02:45:25;;;;;;;11.73;6.40;;;;;;;15.32;76.00;101224.91;2080734;28;20053;-71
2022/05/09 02:46:46;;;;;;;13.73;6.85;;;;;;;15.34;75.87;101228.47;2069518;28;20053;-71
2022/05/09 02:48:10;;;;;;;14.02;6.28;;;;;;;15.36;75.80;101232.03;2075509;28;20477;-71
2022/05/09 02:49:33;;;;;;;12.63;6.43;;;;;;;15.39;75.82;101238.25;2077683;28;20538;-71
2022/05/09 02:50:54;;;;;;;13.38;7.28;;;;;;;15.38;75.62;101232.91;2081287;28;20147;-71
2022/05/09 02:52:17;;;;;;;12.75;7.35;;;;;;;15.37;75.54;101240.00;2077502;28;20068;-71
2022/05/09 02:53:40;;;;;;;15.50;7.63;;;;;;;15.33;75.54;101240.88;2080581;28;22356;-71
2022/05/09 02:55:04;;;;;;;15.07;7.72;;;;;;;15.32;75.42;101247.06;2075563;28;20080;-70
2022/05/09 02:56:26;;;;;;;15.45;6.70;;;;;;;15.28;75.24;101245.31;2084119;28;20063;-71
2022/05/09 02:57:49;;;;;;;14.32;6.45;;;;;;;15.27;75.18;101250.59;2085991;28;20135;-71
2022/05/09 02:59:12;;;;;;;11.20;6.90;;;;;;;15.27;75.05;101250.59;2083480;28;20438;-71
2022/05/09 03:00:35;;;;;;;15.43;6.90;;;;;;;15.26;74.85;101248.81;2072771;28;20053;-71
2022/05/09 03:01:57;;;;;;;17.17;8.60;;;;;;;15.26;74.96;101248.81;2072039;28;20052;-71
2022/05/09 03:04:59;;;;;;;15.30;7.28;;;;;;;15.28;75.21;101245.31;2077785;28;20073;-71
2022/05/09 03:06:20;;;;;;;17.67;7.45;;;;;;;15.32;75.06;101248.84;2076052;28;20749;-71
2022/05/09 03:07:43;;;;;;;13.57;7.03;;;;;;;15.36;75.24;101250.66;2085955;28;20047;-71
2022/05/09 03:09:05;;;;;;;13.15;6.75;;;;;;;15.36;75.02;101240.88;2086159;28;20412;-70
2022/05/09 03:10:31;;;;;;;17.80;8.00;;;;;;;15.32;75.08;101248.84;2072540;28;20497;-71
2022/05/09 03:11:54;;;;;;;17.02;7.85;;;;;;;15.26;75.32;101240.84;2077100;28;20057;-71
2022/05/09 03:13:16;;;;;;;16.15;7.22;;;;;;;15.26;75.29;101243.50;2072701;28;20057;-71
2022/05/09 03:14:39;;;;;;;13.05;7.10;;;;;;;15.20;75.59;101246.13;2084156;28;20044;-71
2022/05/09 03:16:01;;;;;;;12.70;7.13;;;;;;;15.18;75.66;101242.56;2080342;28;20057;-71
2022/05/09 03:17:23;;;;;;;13.85;7.25;;;;;;;15.14;75.84;101244.34;2082724;28;20045;-71
2022/05/09 03:18:46;;;;;;;15.77;7.35;;;;;;;15.13;75.99;101242.56;2079583;28;20048;-71
2022/05/09 03:20:08;;;;;;;17.15;7.25;;;;;;;15.15;75.97;101246.13;2077984;28;20057;-71
2022/05/09 03:21:31;;;;;;;12.55;6.70;;;;;;;15.20;75.91;101246.13;2080104;28;20493;-71
2022/05/09 03:22:54;;;;;;;12.45;7.22;;;;;;;15.22;75.72;101250.59;2069599;28;20495;-70
2022/05/09 03:24:17;;;;;;;10.73;6.68;;;;;;;15.24;75.49;101242.59;2080466;28;20503;-72
2022/05/09 03:25:41;;;;;;;15.13;7.25;;;;;;;15.26;75.56;101243.50;2088952;28;20048;-70
2022/05/09 03:27:06;;;;;;;13.98;7.70;;;;;;;15.26;75.55;101247.06;2072331;28;20145;-71
2022/05/09 03:28:27;;;;;;;13.88;7.15;;;;;;;15.28;75.46;101247.97;2078225;28;20056;-71
2022/05/09 03:29:50;;;;;;;19.33;8.93;;;;;;;15.29;75.49;101246.19;2085075;28;20149;-71
2022/05/09 03:31:13;;;;;;;14.23;6.97;;;;;;;15.28;75.37;101245.31;2076903;28;20426;-71
2022/05/09 03:32:35;;;;;;;16.20;6.75;;;;;;;15.30;75.57;101250.59;2081595;28;20052;-71
2022/05/09 03:33:58;;;;;;;17.80;7.40;;;;;;;15.34;75.50;101255.06;2076899;28;20509;-71
2022/05/09 03:35:20;;;;;;;18.17;7.47;;;;;;;15.36;75.42;101261.31;2072462;28;20045;-71
2022/05/09 03:36:42;;;;;;;15.02;6.97;;;;;;;15.37;75.48;101255.06;2083331;28;20068;-71
2022/05/09 03:38:04;;;;;;;15.65;7.18;;;;;;;15.41;75.33;101262.19;2086207;28;20057;-71
2022/05/09 03:39:26;;;;;;;11.88;6.65;;;;;;;15.46;75.39;101255.13;2084412;28;20040;-71
2022/05/09 03:40:49;;;;;;;15.38;7.20;;;;;;;15.56;75.26;101258.75;2077682;28;20466;-71
2022/05/09 03:42:12;;;;;;;13.32;6.95;;;;;;;15.59;75.18;101258.75;2076676;28;20115;-71
2022/05/09 03:43:33;;;;;;;14.02;6.78;;;;;;;15.64;75.20;101260.53;2077795;28;20060;-71
2022/05/09 03:44:56;;;;;;;13.98;6.38;;;;;;;15.71;75.03;101264.97;2080354;28;20056;-71
2022/05/09 03:46:19;;;;;;;14.02;6.65;;;;;;;15.77;74.95;101264.09;2083790;28;20049;-71
2022/05/09 03:47:40;;;;;;;15.50;7.65;;;;;;;15.78;75.09;101261.44;2077765;28;20049;-71
2022/05/09 03:49:04;;;;;;;17.25;7.50;;;;;;;15.78;75.08;101263.22;2074684;28;20053;-71
2022/05/09 03:50:28;;;;;;;15.40;6.65;;;;;;;15.80;75.07;101272.13;2082874;28;20073;-71
2022/05/09 03:51:50;;;;;;;14.20;7.63;;;;;;;15.83;75.09;101272.09;2069816;28;20120;-71
2022/05/09 03:53:13;;;;;;;14.35;7.28;;;;;;;15.87;75.05;101273.91;2083529;28;20041;-70
2022/05/09 03:54:36;;;;;;;14.43;7.00;;;;;;;15.91;75.03;101271.25;2082416;28;20049;-71
2022/05/09 03:56:01;;;;;;;17.02;7.40;;;;;;;16.01;75.02;101272.16;2084236;28;20079;-71
2022/05/09 03:57:22;;;;;;;12.30;6.78;;;;;;;16.07;74.77;101274.84;2087424;28;20071;-71
2022/05/09 03:58:44;;;;;;;12.45;6.65;;;;;;;16.14;74.64;101281.06;2082865;28;20087;-71
2022/05/09 04:00:08;;;;;;;11.15;6.72;;;;;;;16.25;74.54;101279.28;2078892;28;20156;-71
2022/05/09 04:01:37;;;;;;;15.95;7.15;;;;;;;16.32;74.34;101286.41;2085566;28;20087;-71
2022/05/09 04:02:59;;;;;;;13.43;7.05;;;;;;;16.42;74.21;101282.81;2077966;28;20053;-71
2022/05/09 04:04:21;;;;;;;17.70;7.47;;;;;;;16.52;74.28;101284.63;2074696;28;20076;-71
2022/05/09 04:05:44;;;;;;;13.65;7.43;;;;;;;16.60;74.06;101288.22;2082716;28;20468;-71
2022/05/09 04:07:07;;;;;;;14.15;7.68;;;;;;;16.72;74.19;101281.97;2085018;28;20052;-71
2022/05/09 04:08:29;;;;;;;16.35;8.27;;;;;;;16.81;74.18;101289.06;2083586;28;20120;-71
2022/05/09 04:09:52;;;;;;;13.10;6.88;;;;;;;16.90;74.21;101294.38;2078069;28;20037;-71
2022/05/09 04:11:17;;;;;;;13.52;7.38;;;;;;;17.01;74.40;101289.91;2085038;28;20052;-71
2022/05/09 04:12:38;;;;;;;15.30;7.60;;;;;;;17.09;74.40;101288.13;2080151;28;20076;-71
2022/05/09 04:14:00;;;;;;;19.13;7.00;;;;;;;17.20;74.57;101285.44;2084264;28;20064;-71
2022/05/09 04:17:01;;;;;;;16.83;7.22;;;;;;;17.44;74.74;101285.34;2096353;28;20133;-71
2022/05/09 04:18:24;;;;;;;13.43;6.88;;;;;;;17.56;74.83;101292.41;2081463;28;20045;-71
2022/05/09 04:19:47;;;;;;;12.10;6.43;;;;;;;17.67;74.95;101293.25;2085761;28;20358;-71
2022/05/09 04:21:12;;;;;;;13.18;6.18;;;;;;;17.78;75.04;101296.78;2086244;28;20045;-71
2022/05/09 04:22:35;;;;;;;13.70;6.63;;;;;;;17.87;74.90;101292.25;2074673;28;20074;-71
2022/05/09 04:23:58;;;;;;;13.48;6.47;;;;;;;17.99;74.96;101290.41;2087758;28;20094;-71
2022/05/09 04:25:19;;;;;;;11.63;5.95;;;;;;;18.11;74.95;101290.34;2081767;28;20061;-71
2022/05/09 04:26:44;;;;;;;12.85;6.43;;;;;;;18.25;74.61;101299.13;2087045;28;20134;-71
2022/05/09 04:28:08;;;;;;;9.90;5.95;;;;;;;18.38;74.19;101298.13;2086696;28;20064;-71
2022/05/09 04:29:30;;;;;;;11.95;6.38;;;;;;;18.49;73.53;101290.94;2085207;28;20053;-71
2022/05/09 04:30:54;;;;;;;11.85;5.80;;;;;;;18.59;73.07;101289.09;2087289;28;20041;-71
2022/05/09 04:32:17;;;;;;;12.55;6.00;;;;;;;18.67;73.01;101292.59;2080505;28;20049;-71
2022/05/09 04:33:41;;;;;;;13.43;6.07;;;;;;;18.80;73.01;101294.25;2084885;28;20140;-71
2022/05/09 04:35:02;;;;;;;12.00;5.93;;;;;;;18.95;72.88;101290.53;2071208;28;20050;-71
2022/05/09 04:36:26;;;;;;;13.25;6.10;;;;;;;19.09;72.44;101286.81;2080265;28;20096;-71
2022/05/09 04:37:48;;;;;;;13.13;5.45;;;;;;;19.25;72.08;101289.31;2074486;28;20172;-71
2022/05/09 04:39:11;;;;;;;13.75;6.10;;;;;;;19.39;71.53;101292.72;2068716;28;20100;-71
2022/05/09 04:40:35;;;;;;;12.85;6.28;;;;;;;19.54;70.96;101297.03;2084796;28;20040;-71
2022/05/09 04:41:59;;;;;;;10.45;5.78;;;;;;;19.70;70.37;101290.56;2077763;28;20054;-71
2022/05/09 04:43:24;;;;;;;12.43;5.82;;;;;;;19.84;70.23;101293.94;2086812;28;20057;-71
2022/05/09 04:44:46;;;;;;;11.68;6.35;;;;;;;19.97;69.85;101290.19;2093922;28;20057;-71
2022/05/09 04:46:09;;;;;;;11.02;5.60;;;;;;;20.13;69.72;101291.75;2080611;28;20057;-71
2022/05/09 04:47:31;;;;;;;10.55;5.70;;;;;;;20.33;69.49;101293.25;2084993;28;20049;-71
2022/05/09 04:48:53;;;;;;;9.95;5.80;;;;;;;20.51;69.29;101288.47;2087091;28;20468;-71
2022/05/09 04:50:18;;;;;;;9.98;5.00;;;;;;;20.73;68.59;101288.13;2085741;28;20053;-71
2022/05/09 04:51:40;;;;;;;13.98;5.80;;;;;;;20.93;68.04;101283.28;2086482;28;20088;-71
2022/05/09 04:53:03;;;;;;;13.27;5.72;;;;;;;21.12;67.81;101292.75;2085648;28;20064;-71
2022/05/09 04:54:26;;;;;;;14.60;6.20;;;;;;;21.33;67.32;101292.34;2078922;28;20399;-71
2022/05/09 04:55:48;;;;;;;11.77;4.82;;;;;;;21.55;66.65;101279.34;2076309;28;20064;-71
2022/05/09 04:57:12;;;;;;;10.95;6.07;;;;;;;21.74;66.18;101279.84;2087160;28;20052;-72
2022/05/09 04:58:35;;;;;;;11.15;5.85;;;;;;;21.95;65.29;101284.75;2077964;28;20049;-71
2022/05/09 04:59:58;;;;;;;15.10;6.65;;;;;;;22.14;64.63;101288.78;2084713;28;20429;-71
2022/05/09 05:01:21;;;;;;;12.60;6.28;;;;;;;22.27;64.11;101284.91;2086234;28;20078;-71
2022/05/09 05:02:43;;;;;;;10.60;5.93;;;;;;;22.45;63.61;101280.84;2084812;28;20046;-72
2022/05/09 05:04:07;;;;;;;9.98;6.30;;;;;;;22.65;63.11;101288.44;2084331;28;20052;-72
2022/05/09 05:05:30;;;;;;;14.52;6.15;;;;;;;22.92;62.41;101286.84;2087358;28;20613;-72
2022/05/09 05:06:53;;;;;;;12.55;5.75;;;;;;;23.07;61.95;101285.56;2087070;28;20106;-72
2022/05/09 05:08:16;;;;;;;9.32;5.93;;;;;;;23.23;61.39;101279.72;2084459;28;20162;-72
2022/05/09 05:09:38;;;;;;;14.68;5.75;;;;;;;23.40;60.65;101295.41;2075678;28;20060;-72
2022/05/09 05:11:01;;;;;;;13.43;6.25;;;;;;;23.58;60.23;101286.78;2067508;28;20658;-72
2022/05/09 05:12:26;;;;;;;11.80;6.57;;;;;;;23.75;59.59;101284.50;2068468;28;20520;-72
2022/05/09 05:13:49;;;;;;;14.52;6.03;;;;;;;23.88;58.99;101290.41;2082780;28;20120;-71
2022/05/09 05:15:12;;;;;;;14.82;6.15;;;;;;;24.01;58.75;101289.09;2078008;28;20045;-71
2022/05/09 05:18:15;;;;;;;13.02;5.43;;;;;;;24.36;58.03;101292.47;2083840;28;20080;-72
2022/05/09 05:19:40;;;;;;;11.73;5.30;;;;;;;24.54;57.59;101290.06;2082758;28;20041;-71
2022/05/09 05:21:13;;;;;;;14.98;5.60;;;;;;;24.76;56.90;101287.50;2079302;28;20045;-71
2022/05/09 05:22:37;;;;;;;9.55;5.47;;;;;;;24.94;56.71;101292.28;2086576;28;20041;-71
2022/05/09 05:24:00;;;;;;;14.07;5.53;;;;;;;25.11;55.97;101296.22;2086953;28;20053;-72
2022/05/09 05:25:25;;;;;;;14.77;5.07;;;;;;;25.23;55.23;101293.06;2080294;28;20140;-72
2022/05/09 05:26:48;;;;;;;8.23;4.88;;;;;;;25.36;55.23;101295.28;2086901;28;20055;-72
2022/05/09 05:28:12;;;;;;;13.48;5.70;;;;;;;25.53;54.60;101299.19;2080484;28;20041;-72
2022/05/09 05:29:35;;;;;;;11.07;4.95;;;;;;;25.61;54.40;101299.78;2083827;28;21021;-72
2022/05/09 05:31:11;;;;;;;12.80;5.18;;;;;;;25.63;53.72;101287.97;2087665;28;20048;-71
2022/05/09 05:32:37;;;;;;;10.43;4.78;;;;;;;25.74;53.06;101303.78;2096970;28;20045;-72
2022/05/09 05:33:58;;;;;;;9.63;4.65;;;;;;;25.71;52.23;101296.69;2089629;28;20064;-71
2022/05/09 05:35:24;;;;;;;13.13;5.68;;;;;;;25.67;51.46;101296.84;2078083;28;20049;-73
2022/05/09 05:36:45;;;;;;;12.00;5.53;;;;;;;25.55;51.77;101289.16;2079299;28;20099;-71
2022/05/09 05:38:08;;;;;;;14.30;4.80;;;;;;;25.52;51.97;101294.72;2086929;28;20049;-72
2022/05/09 05:39:31;;;;;;;8.85;4.22;;;;;;;25.54;51.21;101292.81;2075367;28;20152;-71
2022/05/09 05:40:58;;;;;;;9.93;5.10;;;;;;;25.44;51.28;101294.09;2078761;28;20491;-72
2022/05/09 05:42:22;;;;;;;13.65;4.68;;;;;;;25.21;51.50;101295.81;2079245;28;20053;-71
2022/05/09 05:43:47;;;;;;;10.88;5.78;;;;;;;25.28;51.59;101297.38;2086160;28;20053;-72
2022/05/09 05:45:11;;;;;;;11.20;5.07;;;;;;;25.37;51.34;101297.03;2090744;28;20048;-71
2022/05/09 05:46:33;;;;;;;14.05;5.03;;;;;;;25.44;50.44;101296.81;2080662;28;20045;-72
2022/05/09 05:47:56;;;;;;;10.88;5.00;;;;;;;25.45;50.13;101299.47;2084517;28;20044;-72
2022/05/09 05:49:18;;;;;;;11.35;5.05;;;;;;;25.49;50.04;101298.41;2086730;28;20067;-72
2022/05/09 05:50:41;;;;;;;10.82;5.70;;;;;;;25.64;49.45;101296.97;2078324;28;20119;-72
2022/05/09 05:52:05;;;;;;;11.57;4.68;;;;;;;25.65;49.53;101299.63;2077985;28;20135;-72
2022/05/09 05:53:27;;;;;;;10.82;5.05;;;;;;;25.83;49.75;101300.75;2086658;28;20044;-72
2022/05/09 05:54:50;;;;;;;12.10;5.05;;;;;;;26.07;49.26;101298.88;2080797;28;20073;-72
2022/05/09 05:56:13;;;;;;;9.00;4.30;;;;;;;26.30;48.75;101300.72;2084210;28;20102;-71
2022/05/09 05:57:39;;;;;;;8.82;4.25;;;;;;;26.51;48.04;101294.41;2078663;28;20048;-71
2022/05/09 05:59:03;;;;;;;8.75;4.03;;;;;;;26.68;47.78;101301.81;2084933;28;20045;-72
2022/05/09 06:00:25;;;;;;;11.63;4.60;;;;;;;26.85;47.48;101299.25;2078156;28;20055;-72
2022/05/09 06:01:49;;;;;;;11.75;4.57;;;;;;;27.03;46.95;101292.19;2084009;28;20131;-71
2022/05/09 06:03:11;;;;;;;12.30;4.40;;;;;;;27.14;46.56;101298.91;2086589;28;20059;-72
2022/05/09 06:04:34;;;;;;;9.57;4.13;;;;;;;27.27;46.14;101299.22;2083207;28;20048;-72
2022/05/09 06:05:57;;;;;;;10.15;3.78;;;;;;;27.38;46.07;101302.34;2083648;28;20472;-72
2022/05/09 06:07:20;;;;;;;9.57;3.92;;;;;;;27.55;45.74;101307.03;2083963;28;20040;-72
2022/05/09 06:08:43;;;;;;;10.90;4.30;;;;;;;27.67;45.78;101304.63;2084576;28;20437;-71
2022/05/09 06:10:08;;;;;;;14.25;4.20;;;;;;;27.77;45.38;101305.06;2081605;28;20040;-72
2022/05/09 06:11:30;;;;;;;8.35;3.83;;;;;;;27.84;45.17;101305.66;2092558;28;20131;-72
2022/05/09 06:12:53;;;;;;;11.95;4.00;;;;;;;27.67;44.98;101299.19;2085722;28;20041;-72
2022/05/09 06:14:17;;;;;;;12.40;4.22;;;;;;;27.10;45.62;101310.84;2072665;28;20053;-72
2022/05/09 06:15:38;;;;;;;8.38;3.78;;;;;;;26.75;46.40;101304.19;2080652;28;20052;-71
2022/05/09 06:17:02;;;;;;;10.63;4.32;;;;;;;26.63;46.60;101309.25;2080308;28;20506;-72
2022/05/09 06:18:25;;;;;;;11.93;4.03;;;;;;;26.79;46.43;101303.09;2087903;28;20063;-71
2022/05/09 06:19:47;;;;;;;12.20;5.13;;;;;;;27.02;46.31;101309.41;2094767;28;20437;-71
2022/05/09 06:21:10;;;;;;;16.55;4.13;;;;;;;27.31;45.87;101309.84;2086155;28;20053;-72
2022/05/09 06:22:32;;;;;;;13.23;4.10;;;;;;;27.38;45.38;101310.47;2074283;28;20045;-72
2022/05/09 06:23:55;;;;;;;10.70;4.35;;;;;;;27.05;45.66;101311.97;2069468;28;20064;-72
2022/05/09 06:25:18;;;;;;;10.40;3.75;;;;;;;26.93;46.04;101311.56;2084542;28;20074;-72
2022/05/09 06:26:42;;;;;;;14.98;4.20;;;;;;;27.14;45.64;101311.56;2086789;28;20044;-72
2022/05/09 06:28:05;;;;;;;13.43;4.28;;;;;;;27.42;45.01;101303.97;2072626;28;20534;-72
2022/05/09 06:29:29;;;;;;;9.25;4.10;;;;;;;27.62;44.63;101312.09;2080191;28;20056;-72
2022/05/09 06:30:51;;;;;;;9.57;4.32;;;;;;;27.26;44.76;101306.47;2081866;28;20518;-71
2022/05/09 06:32:13;;;;;;;9.57;4.15;;;;;;;26.58;45.86;101320.28;2082021;28;20048;-72
2022/05/09 06:33:35;;;;;;;11.80;4.40;;;;;;;25.94;46.71;101320.13;2080985;28;20423;-72